Etusivu
METAR-TAF:

METAR-TAF

Lentoasemat :

Delta County Airport

Escanaba, Michigan, Yhdysvallat

Leveyspiiri: 45-45N, Pituuspiiri: 087-02W, korkeus merenpinnasta: 180 m

Tämänhetkinen sää

Tämä raportti tehtiin 53 minuuttia sitten, kello 11.56 UTC
tyyntä
Lämpötila 6°C
Kosteus 75%
Ilmanpaine 1023 hPa
Näkyvyys: 16.1 km
selkeää

METAR: KESC 211156Z AUTO 00000KT 10SM CLR 06/02 A3021 RMK AO2 SLP236 70001 T00560022 10056 20000 53008

Aika: 08:49 (12:49 UTC)


TAF: puuttuu

Säähavainnot ja -ennusteet yli 4000 lentoasemalta (METAR- ja TAF-raportit).

Käytössä olevat sääasemat on merkitty karttaan keltaisilla ja punaisilla pisteillä.

Aseta hiiri pisteen päälle nähdäksesi sääaseman nimen.

Klikkaa sitten nähdäksesi säähavainnot ja -ennusteet.

Kartan vaihtaminen: klikkaa mustalla rastilla varustettuja vihreitä pisteitä, niin voit zoomata sisään; viivalla varustettua vihreää pistettä, niin voit zoomata ulos tai vihreitä nuolia, niin pääset viereisille kartoille.


METAR-TAF: